createdAt,value
2018-03-28T00:00:04.918Z,79.17
2018-03-28T00:02:32.371Z,76.63
2018-03-28T00:04:59.867Z,80.43
2018-03-28T00:07:27.403Z,87.97
2018-03-28T00:09:54.910Z,87.10
2018-03-28T00:12:22.376Z,92.47
2018-03-28T00:14:49.825Z,83.97
2018-03-28T00:17:17.291Z,95.43
2018-03-28T00:19:44.755Z,89.77
2018-03-28T00:22:12.995Z,113.27
2018-03-28T00:24:40.463Z,111.40
2018-03-28T00:27:08.031Z,100.53
2018-03-28T00:29:35.595Z,126.80
2018-03-28T00:32:03.055Z,122.50
2018-03-28T00:34:31.299Z,117.00
2018-03-28T00:36:58.759Z,101.93
2018-03-28T00:39:26.223Z,105.83
2018-03-28T00:41:53.698Z,113.10
2018-03-28T00:44:21.959Z,108.00
2018-03-28T00:46:50.203Z,114.87
2018-03-28T00:49:17.680Z,118.23
2018-03-28T00:51:45.177Z,142.30
2018-03-28T00:54:13.416Z,121.97
2018-03-28T00:56:40.886Z,115.10
2018-03-28T00:59:08.362Z,95.40
2018-03-28T01:01:36.598Z,100.93
2018-03-28T01:04:04.078Z,122.67
2018-03-28T01:06:31.557Z,120.90
2018-03-28T01:08:59.776Z,95.80
2018-03-28T01:11:27.246Z,91.70
2018-03-28T01:13:54.711Z,108.37
2018-03-28T01:16:22.174Z,111.33
2018-03-28T01:18:49.647Z,97.90
2018-03-28T01:21:17.878Z,109.03
2018-03-28T01:23:45.334Z,88.90
2018-03-28T01:26:12.810Z,114.00
2018-03-28T01:28:40.382Z,96.27
2018-03-28T01:31:08.660Z,114.33
2018-03-28T01:33:36.141Z,85.53
2018-03-28T01:36:04.367Z,78.60
2018-03-28T01:38:31.838Z,100.97
2018-03-28T01:40:59.319Z,90.67
2018-03-28T01:43:28.500Z,83.93
2018-03-28T01:45:55.962Z,74.63
2018-03-28T01:48:23.438Z,82.30
2018-03-28T01:50:51.670Z,84.73
2018-03-28T01:53:19.118Z,68.23
2018-03-28T01:55:46.614Z,74.97
2018-03-28T01:58:14.894Z,85.53
2018-03-28T02:00:43.228Z,74.53
2018-03-28T02:03:10.708Z,72.10
2018-03-28T02:05:38.179Z,67.43
2018-03-28T02:08:05.635Z,78.03
2018-03-28T02:10:33.866Z,89.67
2018-03-28T02:13:01.378Z,113.57
2018-03-28T02:15:29.597Z,95.73
2018-03-28T02:17:57.083Z,97.27
2018-03-28T02:20:25.315Z,103.33
2018-03-28T02:22:52.779Z,81.00
2018-03-28T02:25:20.277Z,87.20
2018-03-28T02:27:47.738Z,89.37
2018-03-28T02:30:15.199Z,93.00
2018-03-28T02:32:42.759Z,102.90
2018-03-28T02:35:10.220Z,113.50
2018-03-28T02:37:38.451Z,98.80
2018-03-28T02:40:05.940Z,91.20
2018-03-28T02:42:33.399Z,106.83
2018-03-28T02:45:00.869Z,93.20
2018-03-28T02:47:29.111Z,115.30
2018-03-28T02:49:56.584Z,98.17
2018-03-28T02:52:24.043Z,96.73
2018-03-28T02:54:51.519Z,117.07
2018-03-28T02:57:19.751Z,82.93
2018-03-28T02:59:47.220Z,95.07
2018-03-28T03:02:14.707Z,138.60
2018-03-28T03:04:42.966Z,99.73
2018-03-28T03:07:10.429Z,76.17
2018-03-28T03:09:38.663Z,87.30
2018-03-28T03:12:06.133Z,99.73
2018-03-28T03:14:33.601Z,95.10
2018-03-28T03:17:01.067Z,87.73
2018-03-28T03:19:28.529Z,78.63
2018-03-28T03:21:56.019Z,73.83
2018-03-28T03:24:23.486Z,68.37
2018-03-28T03:26:50.954Z,73.40
2018-03-28T03:29:18.426Z,64.63
2018-03-28T03:31:45.917Z,89.50
2018-03-28T03:34:13.376Z,66.87
2018-03-28T03:36:41.609Z,76.57
2018-03-28T03:39:09.085Z,63.63
2018-03-28T03:41:36.551Z,58.17
2018-03-28T03:44:04.054Z,68.53
2018-03-28T03:46:31.546Z,57.43
2018-03-28T03:48:59.003Z,46.23
2018-03-28T03:51:26.481Z,51.20
2018-03-28T03:53:53.950Z,47.33
2018-03-28T03:56:21.406Z,51.73
2018-03-28T03:58:48.916Z,48.60
2018-03-28T04:01:17.102Z,47.80
2018-03-28T04:03:44.601Z,46.70
2018-03-28T04:06:12.148Z,49.23
2018-03-28T04:08:40.387Z,42.93
2018-03-28T04:11:08.722Z,48.60
2018-03-28T04:13:36.203Z,43.40
2018-03-28T04:16:03.685Z,50.47
2018-03-28T04:18:31.173Z,47.93
2018-03-28T04:20:58.626Z,45.67
2018-03-28T04:23:26.103Z,46.13
2018-03-28T04:25:53.586Z,43.67
2018-03-28T04:28:21.906Z,38.63
2018-03-28T04:30:49.378Z,46.13
2018-03-28T04:33:17.623Z,41.63
2018-03-28T04:35:45.095Z,37.57
2018-03-28T04:38:14.093Z,35.77
2018-03-28T04:40:41.567Z,39.87
2018-03-28T04:43:09.818Z,37.70
2018-03-28T04:45:38.114Z,42.17
2018-03-28T04:48:06.355Z,42.87
2018-03-28T04:50:33.852Z,43.40
2018-03-28T04:53:01.551Z,38.37
2018-03-28T04:55:29.016Z,44.83
2018-03-28T04:57:56.491Z,40.43
2018-03-28T05:00:24.074Z,40.33
2018-03-28T05:02:51.535Z,41.03
2018-03-28T05:05:19.089Z,35.53
2018-03-28T05:07:46.559Z,42.77
2018-03-28T05:10:14.817Z,37.07
2018-03-28T05:12:43.111Z,34.77
2018-03-28T05:15:11.354Z,43.37
2018-03-28T05:17:38.816Z,41.40
2018-03-28T05:20:06.294Z,31.60
2018-03-28T05:22:34.531Z,37.50
2018-03-28T05:25:01.982Z,44.80
2018-03-28T05:27:29.450Z,33.63
2018-03-28T05:29:56.914Z,39.13
2018-03-28T05:32:24.379Z,37.50
2018-03-28T05:34:51.861Z,37.73
2018-03-28T05:37:20.099Z,34.67
2018-03-28T05:39:47.575Z,36.83
2018-03-28T05:42:15.054Z,46.93
2018-03-28T05:44:43.281Z,40.23
2018-03-28T05:47:10.744Z,35.33
2018-03-28T05:49:38.223Z,38.60
2018-03-28T05:52:05.680Z,41.87
2018-03-28T05:54:34.767Z,36.50
2018-03-28T05:57:02.211Z,35.37
2018-03-28T05:59:29.666Z,37.17
2018-03-28T06:01:57.254Z,31.63
2018-03-28T06:04:25.500Z,38.47
2018-03-28T06:06:52.966Z,40.83
2018-03-28T06:09:21.203Z,32.47
2018-03-28T06:11:49.684Z,33.03
2018-03-28T06:14:17.191Z,35.27
2018-03-28T06:16:44.761Z,31.40
2018-03-28T06:19:13.027Z,33.57
2018-03-28T06:21:40.507Z,37.83
2018-03-28T06:24:08.755Z,31.27
2018-03-28T06:26:36.223Z,34.33
2018-03-28T06:29:04.496Z,34.73
2018-03-28T06:31:31.954Z,34.23
2018-03-28T06:34:00.279Z,30.70
2018-03-28T06:36:27.752Z,30.93
2018-03-28T06:38:55.251Z,29.83
2018-03-28T06:41:23.491Z,35.63
2018-03-28T06:43:50.956Z,33.17
2018-03-28T06:46:18.428Z,26.73
2018-03-28T06:48:45.914Z,26.30
2018-03-28T06:51:13.442Z,29.50
2018-03-28T06:53:40.948Z,34.00
2018-03-28T06:56:08.411Z,27.43
2018-03-28T06:58:35.876Z,25.43
2018-03-28T07:01:03.336Z,30.00
2018-03-28T07:03:30.811Z,28.73
2018-03-28T07:05:58.272Z,27.00
2018-03-28T07:08:25.739Z,36.07
2018-03-28T07:10:53.211Z,29.90
2018-03-28T07:13:21.438Z,28.50
2018-03-28T07:15:48.898Z,28.10
2018-03-28T07:18:16.371Z,25.00
2018-03-28T07:20:44.008Z,26.50
2018-03-28T07:23:12.183Z,29.93
2018-03-28T07:25:39.656Z,22.77
2018-03-28T07:28:07.124Z,23.43
2018-03-28T07:30:34.712Z,25.60
2018-03-28T07:33:02.953Z,23.83
2018-03-28T07:35:30.410Z,27.10
2018-03-28T07:37:57.996Z,22.03
2018-03-28T07:40:26.299Z,31.87
2018-03-28T07:42:53.779Z,22.10
2018-03-28T07:45:21.251Z,27.20
2018-03-28T07:47:48.724Z,26.23
2018-03-28T07:50:16.178Z,18.60
2018-03-28T07:52:43.667Z,22.50
2018-03-28T07:55:11.905Z,21.50
2018-03-28T07:57:39.364Z,23.60
2018-03-28T08:00:06.829Z,34.37
2018-03-28T08:02:35.267Z,24.67
2018-03-28T08:05:02.740Z,26.83
2018-03-28T08:07:30.206Z,30.80
2018-03-28T08:09:57.676Z,23.90
2018-03-28T08:12:25.139Z,22.63
2018-03-28T08:14:52.598Z,17.97
2018-03-28T08:17:20.071Z,21.93
2018-03-28T08:19:48.290Z,27.07
2018-03-28T08:22:15.752Z,26.57
2018-03-28T08:24:43.218Z,23.60
2018-03-28T08:27:10.698Z,21.97
2018-03-28T08:29:38.151Z,19.90
2018-03-28T08:32:05.629Z,21.80
2018-03-28T08:34:33.858Z,27.03
2018-03-28T08:37:01.315Z,30.57
2018-03-28T08:39:28.782Z,29.23
2018-03-28T08:41:56.260Z,26.93
2018-03-28T08:44:23.731Z,26.27
2018-03-28T08:46:51.971Z,33.30
2018-03-28T08:49:19.443Z,29.20
2018-03-28T08:51:46.912Z,25.17
2018-03-28T08:54:14.397Z,31.17
2018-03-28T08:56:41.846Z,31.50
2018-03-28T08:59:09.325Z,33.93
2018-03-28T09:01:36.806Z,37.10
2018-03-28T09:04:04.263Z,37.80
2018-03-28T09:06:31.732Z,37.57
2018-03-28T09:08:59.223Z,31.73
2018-03-28T09:11:27.454Z,33.60
2018-03-28T09:13:54.989Z,36.87
2018-03-28T09:16:22.468Z,40.33
2018-03-28T09:18:49.937Z,36.67
2018-03-28T09:21:17.399Z,36.27
2018-03-28T09:23:44.899Z,51.30
2018-03-28T09:26:12.412Z,38.33
2018-03-28T09:28:39.891Z,35.23
2018-03-28T09:31:08.131Z,50.53
2018-03-28T09:33:35.581Z,36.03
2018-03-28T09:36:03.058Z,48.80
2018-03-28T09:38:30.547Z,37.77
2018-03-28T09:40:58.777Z,43.70
2018-03-28T09:43:26.241Z,40.37
2018-03-28T09:45:53.711Z,37.37
2018-03-28T09:48:21.184Z,39.70
2018-03-28T09:50:49.427Z,46.63
2018-03-28T09:53:17.681Z,40.43
2018-03-28T09:55:45.142Z,42.83
2018-03-28T09:58:12.612Z,44.10
2018-03-28T10:00:40.084Z,40.30
2018-03-28T10:03:12.418Z,40.20
2018-03-28T10:05:40.819Z,37.90
2018-03-28T10:08:08.287Z,46.17
2018-03-28T10:10:35.747Z,44.73
2018-03-28T10:13:03.217Z,38.33
2018-03-28T10:15:30.676Z,43.77
2018-03-28T10:17:58.907Z,38.67
2018-03-28T10:20:26.383Z,44.07
2018-03-28T10:22:53.839Z,44.50
2018-03-28T10:25:21.303Z,46.23
2018-03-28T10:27:48.772Z,38.23
2018-03-28T10:30:16.232Z,49.23
2018-03-28T10:32:44.488Z,43.00
2018-03-28T10:35:11.970Z,46.10
2018-03-28T10:37:40.208Z,38.00
2018-03-28T10:40:07.672Z,37.43
2018-03-28T10:42:35.154Z,35.37
2018-03-28T10:45:03.390Z,30.73
2018-03-28T10:47:30.857Z,33.17
2018-03-28T10:49:58.335Z,38.23
2018-03-28T10:52:25.794Z,38.20
2018-03-28T10:54:53.250Z,40.93
2018-03-28T10:57:20.727Z,40.73
2018-03-28T10:59:48.963Z,33.93
2018-03-28T11:02:16.486Z,35.63
2018-03-28T11:04:43.947Z,37.00
2018-03-28T11:07:11.417Z,38.27
2018-03-28T11:09:38.894Z,38.30
2018-03-28T11:12:06.366Z,30.20
2018-03-28T11:14:33.829Z,31.33
2018-03-28T11:17:01.295Z,34.40
2018-03-28T11:19:29.563Z,30.10
2018-03-28T11:21:57.805Z,29.17
2018-03-28T11:24:25.273Z,32.50
2018-03-28T11:26:52.742Z,34.40
2018-03-28T11:29:20.984Z,29.73
2018-03-28T11:31:48.471Z,34.77
2018-03-28T11:34:15.942Z,30.03
2018-03-28T11:36:44.185Z,31.90
2018-03-28T11:39:11.663Z,25.60
2018-03-28T11:41:39.136Z,34.20
2018-03-28T11:44:07.368Z,33.97
2018-03-28T11:46:34.864Z,29.70
2018-03-28T11:49:02.339Z,28.47
2018-03-28T11:51:30.587Z,27.97
2018-03-28T11:53:58.055Z,27.70
2018-03-28T11:56:26.304Z,33.07
2018-03-28T11:58:53.775Z,35.10
2018-03-28T12:01:21.280Z,29.90
2018-03-28T12:03:48.805Z,29.67
2018-03-28T12:06:17.039Z,32.17
2018-03-28T12:08:44.531Z,27.13
2018-03-28T12:11:11.996Z,30.47
2018-03-28T12:13:40.228Z,35.17
2018-03-28T12:16:07.686Z,32.80
2018-03-28T12:18:35.167Z,29.90
2018-03-28T12:21:04.163Z,31.40
2018-03-28T12:23:32.384Z,39.07
2018-03-28T12:25:59.890Z,33.47
2018-03-28T12:28:28.246Z,31.60
2018-03-28T12:30:55.713Z,32.73
2018-03-28T12:33:23.182Z,32.33
2018-03-28T12:35:50.650Z,31.40
2018-03-28T12:38:18.902Z,32.07
2018-03-28T12:40:46.401Z,29.70
2018-03-28T12:43:14.649Z,24.80
2018-03-28T12:45:42.112Z,19.50
2018-03-28T12:48:09.606Z,18.83
2018-03-28T12:50:37.068Z,21.33
2018-03-28T12:53:04.532Z,17.67
2018-03-28T12:55:32.152Z,14.37
2018-03-28T12:57:59.480Z,16.00
2018-03-28T13:00:26.939Z,14.33
2018-03-28T13:02:54.411Z,12.77
2018-03-28T13:05:21.872Z,11.27
2018-03-28T13:07:50.156Z,13.73
2018-03-28T13:10:17.590Z,14.47
2018-03-28T13:12:45.050Z,14.80
2018-03-28T13:15:12.508Z,12.37
2018-03-28T13:17:40.041Z,14.63
2018-03-28T13:20:07.528Z,10.00
2018-03-28T13:22:35.012Z,9.57
2018-03-28T13:25:02.540Z,9.80
2018-03-28T13:27:30.764Z,14.40
2018-03-28T13:29:58.223Z,9.70
2018-03-28T13:32:25.787Z,7.10
2018-03-28T13:34:53.246Z,7.97
2018-03-28T13:37:20.759Z,13.47
2018-03-28T13:39:49.017Z,10.07
2018-03-28T13:42:16.474Z,9.50
2018-03-28T13:44:43.955Z,10.77
2018-03-28T13:47:12.236Z,8.63
2018-03-28T13:49:39.690Z,7.70
2018-03-28T13:52:07.919Z,5.20
2018-03-28T13:54:35.504Z,3.90
2018-03-28T13:57:03.751Z,3.93
2018-03-28T13:59:31.224Z,7.57
2018-03-28T14:01:58.696Z,5.87
2018-03-28T14:04:26.935Z,7.13
2018-03-28T14:06:54.414Z,7.00
2018-03-28T14:09:21.902Z,8.80
2018-03-28T14:11:50.137Z,8.30
2018-03-28T14:14:17.599Z,6.47
2018-03-28T14:16:45.090Z,8.10
2018-03-28T14:19:12.547Z,9.17
2018-03-28T14:21:40.053Z,6.80
2018-03-28T14:24:07.819Z,8.57
2018-03-28T14:26:35.285Z,6.30
2018-03-28T14:29:03.569Z,8.10
2018-03-28T14:31:31.091Z,8.80
2018-03-28T14:33:58.525Z,7.90
2018-03-28T14:36:26.047Z,8.83
2018-03-28T14:38:53.601Z,11.13
2018-03-28T14:41:21.063Z,7.57
2018-03-28T14:43:48.569Z,5.20
2018-03-28T14:46:16.044Z,5.50
2018-03-28T14:48:43.490Z,5.77
2018-03-28T14:51:10.943Z,4.90
2018-03-28T14:53:38.445Z,4.83
2018-03-28T14:56:05.898Z,6.27
2018-03-28T14:58:33.359Z,4.33
2018-03-28T15:01:00.852Z,6.40
2018-03-28T15:03:28.302Z,5.87
2018-03-28T15:05:56.532Z,9.43
2018-03-28T15:08:24.009Z,7.67
2018-03-28T15:10:52.264Z,10.77
2018-03-28T15:13:19.787Z,9.50
2018-03-28T15:15:47.213Z,9.57
2018-03-28T15:18:15.445Z,12.10
2018-03-28T15:20:42.911Z,10.13
2018-03-28T15:23:10.370Z,9.20
2018-03-28T15:25:38.596Z,12.13
2018-03-28T15:28:06.065Z,13.27
2018-03-28T15:30:33.531Z,13.60
2018-03-28T15:33:00.991Z,13.03
2018-03-28T15:35:28.485Z,14.20
2018-03-28T15:37:55.957Z,13.73
2018-03-28T15:40:24.219Z,15.37
2018-03-28T15:42:51.674Z,13.97
2018-03-28T15:45:19.214Z,15.93
2018-03-28T15:47:46.676Z,12.57
2018-03-28T15:50:14.151Z,11.90
2018-03-28T15:52:41.642Z,11.77
2018-03-28T15:55:09.113Z,11.23
2018-03-28T15:57:36.566Z,10.93
2018-03-28T16:00:04.090Z,10.40
2018-03-28T16:02:32.323Z,12.57
2018-03-28T16:04:59.806Z,13.43
2018-03-28T16:07:27.278Z,10.13
2018-03-28T16:09:55.541Z,13.83
2018-03-28T16:12:23.005Z,17.03
2018-03-28T16:14:50.484Z,14.73
2018-03-28T16:17:17.958Z,21.43
2018-03-28T16:19:45.425Z,17.47
2018-03-28T16:22:12.923Z,15.10
2018-03-28T16:24:40.386Z,13.80
2018-03-28T16:27:07.873Z,15.13
2018-03-28T16:29:35.334Z,11.07
2018-03-28T16:32:02.858Z,13.60
2018-03-28T16:34:30.319Z,13.40
2018-03-28T16:36:58.587Z,17.83
2018-03-28T16:39:26.822Z,19.00
2018-03-28T16:41:54.374Z,12.73
2018-03-28T16:44:21.866Z,13.40
2018-03-28T16:46:50.114Z,12.30
2018-03-28T16:49:17.614Z,13.60
2018-03-28T16:51:45.091Z,13.90
2018-03-28T16:54:13.319Z,13.23
2018-03-28T16:56:40.773Z,15.63
2018-03-28T16:59:08.670Z,12.80
2018-03-28T17:01:36.168Z,11.40
2018-03-28T17:04:04.367Z,7.43
2018-03-28T17:06:31.830Z,9.97
2018-03-28T17:08:59.298Z,5.00
2018-03-28T17:11:26.760Z,4.17
2018-03-28T17:13:55.088Z,8.53
2018-03-28T17:16:22.548Z,5.50
2018-03-28T17:18:50.007Z,5.30
2018-03-28T17:21:17.535Z,4.30
2018-03-28T17:23:45.806Z,5.07
2018-03-28T17:26:14.255Z,4.30
2018-03-28T17:28:41.722Z,3.83
2018-03-28T17:31:09.210Z,5.90
2018-03-28T17:33:37.434Z,3.97
2018-03-28T17:36:05.895Z,5.53
2018-03-28T17:38:33.354Z,4.70
2018-03-28T17:41:00.810Z,2.90
2018-03-28T17:43:28.302Z,2.37
2018-03-28T17:45:55.900Z,2.00
2018-03-28T17:48:23.355Z,2.40
2018-03-28T17:50:50.873Z,3.17
2018-03-28T17:53:18.339Z,2.17
2018-03-28T17:55:45.799Z,1.87
2018-03-28T17:58:14.783Z,1.73
2018-03-28T18:00:42.300Z,1.90
2018-03-28T18:03:09.798Z,1.43
2018-03-28T18:05:37.311Z,1.17
2018-03-28T18:08:05.717Z,1.80
2018-03-28T18:10:34.135Z,1.60
2018-03-28T18:13:01.668Z,4.60
2018-03-28T18:15:29.160Z,2.10
2018-03-28T18:17:57.922Z,2.60
2018-03-28T18:20:26.167Z,1.63
2018-03-28T18:22:54.958Z,2.00
2018-03-28T18:25:22.423Z,1.17
2018-03-28T18:27:49.904Z,0.90
2018-03-28T18:30:17.400Z,1.47
2018-03-28T18:32:44.871Z,3.07
2018-03-28T18:35:12.399Z,1.70
2018-03-28T18:37:39.919Z,1.77
2018-03-28T18:40:07.388Z,2.80
2018-03-28T18:42:34.848Z,2.83
2018-03-28T18:45:02.375Z,2.40
2018-03-28T18:47:29.879Z,5.50
2018-03-28T18:49:57.307Z,3.03
2018-03-28T18:52:24.808Z,2.10
2018-03-28T18:54:52.263Z,2.30
2018-03-28T18:57:20.517Z,1.93
2018-03-28T18:59:48.780Z,4.67
2018-03-28T19:02:17.039Z,5.10
2018-03-28T19:04:44.586Z,5.73
2018-03-28T19:07:12.047Z,4.60
2018-03-28T19:09:39.506Z,2.87
2018-03-28T19:12:07.008Z,8.23
2018-03-28T19:14:35.288Z,5.10
2018-03-28T19:17:03.555Z,1.90
2018-03-28T19:19:31.088Z,3.63
2018-03-28T19:21:58.549Z,14.27
2018-03-28T19:24:26.910Z,10.00
2018-03-28T19:26:54.386Z,1.23
2018-03-28T19:29:21.843Z,2.90
2018-03-28T19:31:49.296Z,2.90
2018-03-28T19:34:16.774Z,5.07
2018-03-28T19:36:45.049Z,1.63
2018-03-28T19:39:13.312Z,1.60
2018-03-28T19:41:40.787Z,2.30
2018-03-28T19:44:08.270Z,4.77
2018-03-28T19:46:35.729Z,4.47
2018-03-28T19:49:03.215Z,3.27
2018-03-28T19:51:30.687Z,11.80
2018-03-28T19:53:58.155Z,2.03
2018-03-28T19:56:25.615Z,4.10
2018-03-28T19:58:53.839Z,3.80
2018-03-28T20:01:21.314Z,3.50
2018-03-28T20:03:48.772Z,7.17
2018-03-28T20:06:16.300Z,3.53
2018-03-28T20:08:43.818Z,4.33
2018-03-28T20:11:12.062Z,3.27
2018-03-28T20:13:40.585Z,6.60
2018-03-28T20:16:08.830Z,6.17
2018-03-28T20:18:36.299Z,5.73
2018-03-28T20:21:03.850Z,3.73
2018-03-28T20:23:31.308Z,4.60
2018-03-28T20:25:58.763Z,7.07
2018-03-28T20:28:26.248Z,2.87
2018-03-28T20:30:54.477Z,2.93
2018-03-28T20:33:21.922Z,7.03
2018-03-28T20:35:49.395Z,6.80
2018-03-28T20:38:16.878Z,6.20
2018-03-28T20:40:44.335Z,3.43
2018-03-28T20:43:11.791Z,5.60
2018-03-28T20:45:39.242Z,8.20
2018-03-28T20:48:06.699Z,15.10
2018-03-28T20:50:34.167Z,5.30
2018-03-28T20:53:02.425Z,3.33
2018-03-28T20:55:29.922Z,8.03
2018-03-28T20:57:57.435Z,6.57
2018-03-28T21:00:26.403Z,4.70
2018-03-28T21:02:53.863Z,9.27
2018-03-28T21:05:22.327Z,9.90
2018-03-28T21:07:49.841Z,10.13
2018-03-28T21:10:17.271Z,7.53
2018-03-28T21:12:44.739Z,5.70
2018-03-28T21:15:12.392Z,7.43
2018-03-28T21:17:39.851Z,6.30
2018-03-28T21:20:07.327Z,5.83
2018-03-28T21:22:34.778Z,6.33
2018-03-28T21:25:02.235Z,3.33
2018-03-28T21:27:29.703Z,2.80
2018-03-28T21:29:57.969Z,7.87
2018-03-28T21:32:25.413Z,5.87
2018-03-28T21:34:52.917Z,4.70
2018-03-28T21:37:20.412Z,6.30
2018-03-28T21:39:47.875Z,7.03
2018-03-28T21:42:15.342Z,5.40
2018-03-28T21:44:42.842Z,5.23
2018-03-28T21:47:10.295Z,6.90
2018-03-28T21:49:37.765Z,3.43
2018-03-28T21:52:05.285Z,15.07
2018-03-28T21:54:32.731Z,7.90
2018-03-28T21:57:00.194Z,8.27
2018-03-28T21:59:27.666Z,6.20
2018-03-28T22:01:55.902Z,4.87
2018-03-28T22:04:23.371Z,6.57
2018-03-28T22:06:50.842Z,12.63
2018-03-28T22:09:18.300Z,3.40
2018-03-28T22:11:45.766Z,11.20
2018-03-28T22:14:13.982Z,9.43
2018-03-28T22:16:41.441Z,7.00
2018-03-28T22:19:08.921Z,5.10
2018-03-28T22:21:36.391Z,10.43
2018-03-28T22:24:03.845Z,6.10
2018-03-28T22:26:31.319Z,11.30
2018-03-28T22:28:58.761Z,9.80
2018-03-28T22:31:27.730Z,9.83
2018-03-28T22:33:55.212Z,8.87
2018-03-28T22:36:23.439Z,7.53
2018-03-28T22:38:51.590Z,11.43
2018-03-28T22:41:19.069Z,13.13
2018-03-28T22:43:46.511Z,7.03
2018-03-28T22:46:13.964Z,8.40
2018-03-28T22:48:41.433Z,8.57
2018-03-28T22:51:08.883Z,13.00
2018-03-28T22:53:36.337Z,12.27
2018-03-28T22:56:03.815Z,8.10
2018-03-28T22:58:31.310Z,7.27
2018-03-28T23:00:58.767Z,9.27
2018-03-28T23:03:26.235Z,13.40
2018-03-28T23:05:53.695Z,6.87
2018-03-28T23:08:21.914Z,15.37
2018-03-28T23:10:49.375Z,7.53
2018-03-28T23:13:16.830Z,9.17
2018-03-28T23:15:44.295Z,4.60
2018-03-28T23:18:11.785Z,10.30
2018-03-28T23:20:39.246Z,8.43
2018-03-28T23:23:06.695Z,5.10
2018-03-28T23:25:34.166Z,4.63
2018-03-28T23:28:01.624Z,6.80
2018-03-28T23:30:29.070Z,5.87
2018-03-28T23:32:56.538Z,4.20
2018-03-28T23:35:24.013Z,4.37
2018-03-28T23:37:52.231Z,7.50
2018-03-28T23:40:19.695Z,6.27
2018-03-28T23:42:47.151Z,7.43
2018-03-28T23:45:14.602Z,10.17
2018-03-28T23:47:42.071Z,5.77
2018-03-28T23:50:09.527Z,7.93
2018-03-28T23:52:36.999Z,7.50
2018-03-28T23:55:04.458Z,12.00
2018-03-28T23:57:31.905Z,10.93
